sensor_id;sensor_type;location;lat;lon;timestamp;temperature;humidity
71291;DHT22;59073;51.994;4.448;2022-09-12T04:48:11;17.46;77.65
71291;DHT22;59073;51.994;4.448;2022-09-12T04:50:36;17.56;77.30
71291;DHT22;59073;51.994;4.448;2022-09-12T04:53:02;17.63;76.96
71291;DHT22;59073;51.994;4.448;2022-09-12T04:55:27;17.56;77.03
71291;DHT22;59073;51.994;4.448;2022-09-12T04:57:53;17.27;78.54
71291;DHT22;59073;51.994;4.448;2022-09-12T05:00:18;17.17;79.55
71291;DHT22;59073;51.994;4.448;2022-09-12T05:02:45;17.38;79.13
71291;DHT22;59073;51.994;4.448;2022-09-12T05:05:10;17.49;77.96
71291;DHT22;59073;51.994;4.448;2022-09-12T05:07:44;17.48;77.77
71291;DHT22;59073;51.994;4.448;2022-09-12T05:10:12;17.49;77.63
71291;DHT22;59073;51.994;4.448;2022-09-12T05:12:40;17.52;77.21
71291;DHT22;59073;51.994;4.448;2022-09-12T05:15:06;17.38;77.77
71291;DHT22;59073;51.994;4.448;2022-09-12T05:21:17;16.88;80.88
71291;DHT22;59073;51.994;4.448;2022-09-12T05:27:20;16.64;82.30
71291;DHT22;59073;51.994;4.448;2022-09-12T05:30:03;16.67;81.82
71291;DHT22;59073;51.994;4.448;2022-09-12T05:36:30;16.38;82.86
71291;DHT22;59073;51.994;4.448;2022-09-12T05:38:59;16.45;82.44
71291;DHT22;59073;51.994;4.448;2022-09-12T05:41:27;16.50;82.49
71291;DHT22;59073;51.994;4.448;2022-09-12T05:44:05;16.57;81.93
71291;DHT22;59073;51.994;4.448;2022-09-12T05:46:36;16.70;81.85
71291;DHT22;59073;51.994;4.448;2022-09-12T05:49:05;16.87;80.99
71291;DHT22;59073;51.994;4.448;2022-09-12T05:51:34;17.01;80.81
71291;DHT22;59073;51.994;4.448;2022-09-12T05:54:05;17.35;79.65
71291;DHT22;59073;51.994;4.448;2022-09-12T05:56:41;17.68;78.60
71291;DHT22;59073;51.994;4.448;2022-09-12T05:59:18;17.97;77.23
71291;DHT22;59073;51.994;4.448;2022-09-12T06:01:44;18.45;75.88
71291;DHT22;59073;51.994;4.448;2022-09-12T06:04:10;19.09;73.91
71291;DHT22;59073;51.994;4.448;2022-09-12T06:06:50;19.40;72.10
71291;DHT22;59073;51.994;4.448;2022-09-12T06:09:16;19.54;71.54
71291;DHT22;59073;51.994;4.448;2022-09-12T06:11:47;19.85;70.92
71291;DHT22;59073;51.994;4.448;2022-09-12T06:14:25;19.88;70.73
71291;DHT22;59073;51.994;4.448;2022-09-12T06:16:51;20.35;69.18
71291;DHT22;59073;51.994;4.448;2022-09-12T06:19:21;20.42;69.02
71291;DHT22;59073;51.994;4.448;2022-09-12T06:21:54;20.84;68.18
71291;DHT22;59073;51.994;4.448;2022-09-12T06:24:23;20.82;68.00
71291;DHT22;59073;51.994;4.448;2022-09-12T06:26:49;21.33;66.49
71291;DHT22;59073;51.994;4.448;2022-09-12T06:29:17;22.02;64.60
71291;DHT22;59073;51.994;4.448;2022-09-12T06:31:44;22.32;63.75
71291;DHT22;59073;51.994;4.448;2022-09-12T06:34:12;22.43;63.91
71291;DHT22;59073;51.994;4.448;2022-09-12T06:36:46;22.84;62.27
71291;DHT22;59073;51.994;4.448;2022-09-12T06:39:23;23.25;61.49
71291;DHT22;59073;51.994;4.448;2022-09-12T06:41:51;23.67;60.49
71291;DHT22;59073;51.994;4.448;2022-09-12T06:44:42;24.04;59.45
71291;DHT22;59073;51.994;4.448;2022-09-12T06:47:18;23.94;59.68
71291;DHT22;59073;51.994;4.448;2022-09-12T06:49:47;24.17;58.70
71291;DHT22;59073;51.994;4.448;2022-09-12T06:52:13;24.50;58.97
71291;DHT22;59073;51.994;4.448;2022-09-12T06:54:38;24.73;57.24
71291;DHT22;59073;51.994;4.448;2022-09-12T06:57:04;24.78;57.53
71291;DHT22;59073;51.994;4.448;2022-09-12T06:59:29;24.83;57.56
71291;DHT22;59073;51.994;4.448;2022-09-12T07:01:55;25.20;56.84
71291;DHT22;59073;51.994;4.448;2022-09-12T07:04:21;24.51;58.19
71291;DHT22;59073;51.994;4.448;2022-09-12T07:06:49;24.06;58.85
71291;DHT22;59073;51.994;4.448;2022-09-12T07:09:14;23.73;59.32
71291;DHT22;59073;51.994;4.448;2022-09-12T07:11:41;23.93;59.97
71291;DHT22;59073;51.994;4.448;2022-09-12T07:14:10;24.11;59.09
71291;DHT22;59073;51.994;4.448;2022-09-12T07:16:56;24.20;58.96
71291;DHT22;59073;51.994;4.448;2022-09-12T07:19:21;24.04;60.41
71291;DHT22;59073;51.994;4.448;2022-09-12T07:21:47;23.90;60.87
71291;DHT22;59073;51.994;4.448;2022-09-12T07:24:12;23.77;61.01
71291;DHT22;59073;51.994;4.448;2022-09-12T07:26:39;23.53;61.57
71291;DHT22;59073;51.994;4.448;2022-09-12T07:29:12;23.41;62.13
71291;DHT22;59073;51.994;4.448;2022-09-12T07:31:37;23.26;62.66
71291;DHT22;59073;51.994;4.448;2022-09-12T07:34:06;22.98;63.33
71291;DHT22;59073;51.994;4.448;2022-09-12T07:36:31;22.83;63.94
71291;DHT22;59073;51.994;4.448;2022-09-12T07:38:57;22.77;64.54
71291;DHT22;59073;51.994;4.448;2022-09-12T07:41:28;22.92;63.15
71291;DHT22;59073;51.994;4.448;2022-09-12T07:43:56;22.63;65.40
71291;DHT22;59073;51.994;4.448;2022-09-12T07:46:23;22.57;64.77
71291;DHT22;59073;51.994;4.448;2022-09-12T07:48:50;22.68;65.22
71291;DHT22;59073;51.994;4.448;2022-09-12T07:51:17;22.84;64.10
71291;DHT22;59073;51.994;4.448;2022-09-12T07:53:43;23.04;64.14
71291;DHT22;59073;51.994;4.448;2022-09-12T07:56:10;23.10;63.30
71291;DHT22;59073;51.994;4.448;2022-09-12T07:58:38;23.28;63.75
71291;DHT22;59073;51.994;4.448;2022-09-12T08:01:07;23.35;63.55
71291;DHT22;59073;51.994;4.448;2022-09-12T08:03:36;23.53;62.50
71291;DHT22;59073;51.994;4.448;2022-09-12T08:06:06;23.49;62.87
71291;DHT22;59073;51.994;4.448;2022-09-12T08:08:32;23.73;62.63
71291;DHT22;59073;51.994;4.448;2022-09-12T08:11:06;23.63;61.95
71291;DHT22;59073;51.994;4.448;2022-09-12T08:13:39;23.66;61.74
71291;DHT22;59073;51.994;4.448;2022-09-12T08:16:26;23.90;61.02
71291;DHT22;59073;51.994;4.448;2022-09-12T08:18:52;24.10;61.42
71291;DHT22;59073;51.994;4.448;2022-09-12T08:21:28;24.17;60.78
71291;DHT22;59073;51.994;4.448;2022-09-12T08:23:56;23.93;61.59
71291;DHT22;59073;51.994;4.448;2022-09-12T08:26:23;24.10;60.83
71291;DHT22;59073;51.994;4.448;2022-09-12T08:28:49;24.06;60.35
71291;DHT22;59073;51.994;4.448;2022-09-12T08:31:17;23.84;61.49
71291;DHT22;59073;51.994;4.448;2022-09-12T08:33:44;23.51;61.06
71291;DHT22;59073;51.994;4.448;2022-09-12T08:36:12;23.52;62.00
71291;DHT22;59073;51.994;4.448;2022-09-12T08:38:40;23.45;61.66
71291;DHT22;59073;51.994;4.448;2022-09-12T08:41:25;23.63;60.82
71291;DHT22;59073;51.994;4.448;2022-09-12T08:47:15;24.01;59.48
71291;DHT22;59073;51.994;4.448;2022-09-12T08:52:29;24.32;57.45
71291;DHT22;59073;51.994;4.448;2022-09-12T08:54:55;24.55;58.96
71291;DHT22;59073;51.994;4.448;2022-09-12T08:57:22;24.92;58.63
71291;DHT22;59073;51.994;4.448;2022-09-12T08:59:50;24.98;55.92
71291;DHT22;59073;51.994;4.448;2022-09-12T09:02:31;25.06;55.12
71291;DHT22;59073;51.994;4.448;2022-09-12T09:05:29;25.02;57.88
71291;DHT22;59073;51.994;4.448;2022-09-12T09:11:02;24.73;56.30
71291;DHT22;59073;51.994;4.448;2022-09-12T09:13:52;24.82;55.73
71291;DHT22;59073;51.994;4.448;2022-09-12T09:16:45;24.61;55.79
71291;DHT22;59073;51.994;4.448;2022-09-12T09:19:27;24.75;54.66
71291;DHT22;59073;51.994;4.448;2022-09-12T09:22:10;24.99;52.77
71291;DHT22;59073;51.994;4.448;2022-09-12T09:24:46;24.96;54.22
71291;DHT22;59073;51.994;4.448;2022-09-12T09:27:50;25.13;53.68
71291;DHT22;59073;51.994;4.448;2022-09-12T09:30:34;25.33;54.36
71291;DHT22;59073;51.994;4.448;2022-09-12T09:33:22;25.27;54.03
71291;DHT22;59073;51.994;4.448;2022-09-12T09:39:11;25.18;54.03
71291;DHT22;59073;51.994;4.448;2022-09-12T09:45:18;25.29;54.12
71291;DHT22;59073;51.994;4.448;2022-09-12T09:48:17;25.34;54.05
71291;DHT22;59073;51.994;4.448;2022-09-12T09:50:46;25.29;53.14
71291;DHT22;59073;51.994;4.448;2022-09-12T09:53:31;25.40;54.10
71291;DHT22;59073;51.994;4.448;2022-09-12T09:56:02;25.47;52.70
71291;DHT22;59073;51.994;4.448;2022-09-12T09:58:34;25.59;52.97
71291;DHT22;59073;51.994;4.448;2022-09-12T10:01:03;25.69;51.82
71291;DHT22;59073;51.994;4.448;2022-09-12T10:03:49;25.56;51.96
71291;DHT22;59073;51.994;4.448;2022-09-12T10:06:31;25.69;52.90
71291;DHT22;59073;51.994;4.448;2022-09-12T10:09:22;25.87;52.96
71291;DHT22;59073;51.994;4.448;2022-09-12T10:11:49;25.95;53.06
71291;DHT22;59073;51.994;4.448;2022-09-12T10:14:45;25.88;53.20
71291;DHT22;59073;51.994;4.448;2022-09-12T10:17:29;25.71;53.19
71291;DHT22;59073;51.994;4.448;2022-09-12T10:19:56;25.47;53.08
71291;DHT22;59073;51.994;4.448;2022-09-12T10:22:33;25.43;53.30
71291;DHT22;59073;51.994;4.448;2022-09-12T10:25:00;25.19;52.69
71291;DHT22;59073;51.994;4.448;2022-09-12T10:27:30;24.89;53.88
71291;DHT22;59073;51.994;4.448;2022-09-12T10:32:52;25.49;55.25
71291;DHT22;59073;51.994;4.448;2022-09-12T10:35:30;25.69;53.30
71291;DHT22;59073;51.994;4.448;2022-09-12T10:38:16;25.54;53.54
71291;DHT22;59073;51.994;4.448;2022-09-12T10:41:03;25.71;53.40
71291;DHT22;59073;51.994;4.448;2022-09-12T10:43:35;25.71;53.22
71291;DHT22;59073;51.994;4.448;2022-09-12T10:52:26;25.91;53.40
71291;DHT22;59073;51.994;4.448;2022-09-12T10:55:24;25.98;53.68
71291;DHT22;59073;51.994;4.448;2022-09-12T11:01:50;26.28;52.46
71291;DHT22;59073;51.994;4.448;2022-09-12T11:07:54;26.42;51.95
71291;DHT22;59073;51.994;4.448;2022-09-12T11:10:33;26.09;51.37
71291;DHT22;59073;51.994;4.448;2022-09-12T14:18:05;26.04;52.32
71291;DHT22;59073;51.994;4.448;2022-09-12T15:46:22;25.46;54.03
71291;DHT22;59073;51.994;4.448;2022-09-12T15:49:54;25.57;54.88
71291;DHT22;59073;51.994;4.448;2022-09-12T15:52:34;25.47;54.18
71291;DHT22;59073;51.994;4.448;2022-09-12T16:12:17;24.98;53.26
71291;DHT22;59073;51.994;4.448;2022-09-12T16:35:02;24.91;55.60
71291;DHT22;59073;51.994;4.448;2022-09-12T18:23:28;21.65;72.78
71291;DHT22;59073;51.994;4.448;2022-09-12T18:26:08;21.45;72.78
71291;DHT22;59073;51.994;4.448;2022-09-12T18:29:05;21.47;71.59
71291;DHT22;59073;51.994;4.448;2022-09-12T19:47:23;21.96;69.85
71291;DHT22;59073;51.994;4.448;2022-09-12T20:21:15;21.47;71.15
